createdAt,value
2018-08-12T00:01:38.354Z,4.70
2018-08-12T00:04:08.250Z,4.00
2018-08-12T00:06:38.020Z,3.40
2018-08-12T00:09:10.641Z,3.57
2018-08-12T00:11:40.542Z,3.40
2018-08-12T00:14:10.280Z,3.70
2018-08-12T00:16:39.913Z,3.40
2018-08-12T00:19:09.670Z,3.77
2018-08-12T00:21:39.354Z,3.87
2018-08-12T00:24:09.154Z,3.87
2018-08-12T00:26:38.813Z,3.77
2018-08-12T00:29:08.510Z,3.60
2018-08-12T00:31:38.249Z,4.47
2018-08-12T00:34:08.242Z,3.60
2018-08-12T00:36:38.133Z,3.70
2018-08-12T00:39:11.869Z,3.17
2018-08-12T00:41:41.748Z,3.20
2018-08-12T00:44:11.548Z,3.17
2018-08-12T00:46:41.304Z,3.50
2018-08-12T00:49:11.028Z,2.97
2018-08-12T00:51:40.708Z,3.50
2018-08-12T00:54:10.428Z,3.40
2018-08-12T00:56:40.213Z,3.30
2018-08-12T00:59:09.933Z,3.10
2018-08-12T01:01:39.618Z,3.50
2018-08-12T01:04:09.349Z,3.40
2018-08-12T01:06:39.090Z,3.10
2018-08-12T01:09:12.445Z,3.27
2018-08-12T01:11:42.193Z,3.30
2018-08-12T01:14:11.991Z,3.50
2018-08-12T01:16:41.696Z,3.60
2018-08-12T01:19:11.428Z,3.10
2018-08-12T01:21:41.098Z,3.47
2018-08-12T01:24:10.826Z,2.90
2018-08-12T01:26:40.609Z,2.40
2018-08-12T01:29:10.341Z,3.07
2018-08-12T01:31:40.135Z,3.40
2018-08-12T01:34:09.936Z,3.00
2018-08-12T01:36:39.641Z,2.77
2018-08-12T01:39:10.604Z,3.23
2018-08-12T01:41:40.304Z,2.90
2018-08-12T01:44:10.098Z,3.37
2018-08-12T01:46:39.756Z,2.97
2018-08-12T01:49:09.385Z,2.73
2018-08-12T01:51:39.213Z,3.40
2018-08-12T01:54:08.937Z,2.97
2018-08-12T01:56:38.598Z,2.70
2018-08-12T01:59:08.325Z,3.27
2018-08-12T02:01:37.959Z,3.00
2018-08-12T02:04:07.665Z,2.70
2018-08-12T02:06:37.365Z,3.30
2018-08-12T02:09:10.073Z,3.00
2018-08-12T02:11:40.223Z,3.00
2018-08-12T02:14:10.156Z,3.23
2018-08-12T02:16:39.891Z,3.07
2018-08-12T02:19:09.665Z,2.87
2018-08-12T02:21:39.397Z,2.60
2018-08-12T02:24:09.420Z,2.97
2018-08-12T02:26:39.102Z,3.80
2018-08-12T02:29:08.768Z,2.90
2018-08-12T02:31:38.483Z,3.50
2018-08-12T02:34:08.239Z,3.05
2018-08-12T02:36:38.054Z,2.57
2018-08-12T02:39:11.093Z,2.80
2018-08-12T02:41:40.940Z,2.60
2018-08-12T02:44:10.680Z,2.67
2018-08-12T02:46:40.569Z,2.50
2018-08-12T02:49:10.226Z,2.67
2018-08-12T02:51:39.913Z,2.60
2018-08-12T02:54:09.726Z,2.47
2018-08-12T02:56:39.497Z,2.87
2018-08-12T02:59:09.133Z,1.87
2018-08-12T03:01:38.812Z,2.20
2018-08-12T03:04:08.519Z,2.53
2018-08-12T03:06:38.220Z,2.65
2018-08-12T03:09:11.826Z,2.30
2018-08-12T03:11:42.012Z,2.47
2018-08-12T03:14:11.788Z,2.60
2018-08-12T03:16:41.536Z,2.13
2018-08-12T03:19:11.409Z,2.20
2018-08-12T03:21:41.110Z,2.40
2018-08-12T03:24:10.951Z,2.30
2018-08-12T03:26:40.639Z,1.80
2018-08-12T03:29:10.377Z,2.40
2018-08-12T03:31:40.208Z,2.30
2018-08-12T03:34:09.964Z,2.40
2018-08-12T03:36:39.933Z,2.30
2018-08-12T03:39:11.671Z,1.97
2018-08-12T03:41:41.331Z,2.07
2018-08-12T03:44:10.981Z,2.07
2018-08-12T03:46:40.752Z,2.53
2018-08-12T03:49:10.509Z,2.40
2018-08-12T03:51:40.259Z,2.17
2018-08-12T03:54:10.104Z,2.70
2018-08-12T03:56:40.001Z,2.50
2018-08-12T03:59:09.740Z,2.30
2018-08-12T04:01:39.419Z,2.10
2018-08-12T04:04:09.249Z,2.10
2018-08-12T04:06:38.962Z,2.17
2018-08-12T04:09:10.436Z,1.93
2018-08-12T04:11:40.609Z,2.23
2018-08-12T04:14:10.369Z,1.83
2018-08-12T04:16:43.793Z,2.40
2018-08-12T04:19:13.533Z,2.00
2018-08-12T04:21:43.396Z,2.33
2018-08-12T04:24:13.106Z,2.10
2018-08-12T04:26:42.824Z,2.80
2018-08-12T04:29:12.537Z,2.00
2018-08-12T04:31:42.291Z,1.93
2018-08-12T04:34:12.060Z,2.40
2018-08-12T04:36:41.857Z,2.27
2018-08-12T04:39:13.217Z,2.30
2018-08-12T04:41:44.068Z,1.90
2018-08-12T04:44:14.203Z,2.47
2018-08-12T04:46:44.052Z,2.50
2018-08-12T04:49:13.717Z,2.47
2018-08-12T04:51:43.478Z,2.30
2018-08-12T04:54:13.193Z,2.10
2018-08-12T04:56:42.990Z,2.60
2018-08-12T04:59:12.679Z,2.43
2018-08-12T05:01:42.418Z,2.17
2018-08-12T05:04:12.208Z,2.60
2018-08-12T05:06:41.863Z,2.73
2018-08-12T05:09:12.503Z,2.00
2018-08-12T05:11:42.278Z,2.53
2018-08-12T05:14:12.181Z,2.37
2018-08-12T05:16:42.022Z,2.17
2018-08-12T05:19:11.789Z,2.20
2018-08-12T05:21:41.609Z,2.53
2018-08-12T05:24:11.366Z,2.30
2018-08-12T05:26:41.122Z,2.67
2018-08-12T05:29:11.032Z,2.83
2018-08-12T05:31:40.800Z,2.37
2018-08-12T05:34:10.632Z,2.23
2018-08-12T05:36:40.449Z,1.80
2018-08-12T05:39:12.801Z,2.47
2018-08-12T05:41:43.037Z,2.60
2018-08-12T05:44:12.779Z,2.80
2018-08-12T05:46:42.502Z,2.70
2018-08-12T05:49:12.276Z,2.97
2018-08-12T05:51:42.096Z,2.70
2018-08-12T05:54:12.027Z,2.60
2018-08-12T05:56:41.760Z,3.30
2018-08-12T05:59:11.455Z,3.30
2018-08-12T06:01:41.186Z,3.10
2018-08-12T06:04:11.006Z,2.80
2018-08-12T06:06:40.731Z,2.87
2018-08-12T06:09:11.208Z,3.20
2018-08-12T06:11:40.988Z,2.43
2018-08-12T06:14:10.909Z,3.33
2018-08-12T06:16:40.882Z,3.30
2018-08-12T06:19:10.737Z,4.07
2018-08-12T06:21:40.512Z,3.37
2018-08-12T06:24:10.298Z,3.10
2018-08-12T06:26:40.015Z,2.53
2018-08-12T06:29:09.849Z,3.27
2018-08-12T06:31:39.518Z,3.43
2018-08-12T06:34:09.321Z,2.70
2018-08-12T06:36:39.211Z,3.07
2018-08-12T06:39:11.504Z,2.93
2018-08-12T06:41:41.198Z,3.50
2018-08-12T06:44:10.926Z,3.47
2018-08-12T06:46:43.704Z,3.20
2018-08-12T06:49:13.456Z,2.70
2018-08-12T06:51:43.289Z,3.00
2018-08-12T06:54:12.973Z,4.63
2018-08-12T06:56:42.750Z,3.23
2018-08-12T06:59:12.447Z,2.27
2018-08-12T07:01:42.280Z,3.27
2018-08-12T07:04:12.036Z,3.53
2018-08-12T07:06:41.750Z,3.20
2018-08-12T07:09:12.044Z,3.17
2018-08-12T07:11:41.802Z,2.70
2018-08-12T07:14:11.541Z,3.20
2018-08-12T07:16:41.137Z,2.80
2018-08-12T07:19:10.876Z,2.83
2018-08-12T07:21:40.911Z,2.90
2018-08-12T07:24:10.584Z,3.00
2018-08-12T07:26:40.265Z,3.00
2018-08-12T07:29:10.406Z,2.73
2018-08-12T07:31:40.102Z,2.67
2018-08-12T07:34:09.837Z,3.10
2018-08-12T07:36:39.497Z,3.10
2018-08-12T07:39:10.298Z,2.43
2018-08-12T07:41:40.032Z,2.87
2018-08-12T07:44:09.845Z,3.00
2018-08-12T07:46:39.551Z,3.40
2018-08-12T07:49:09.232Z,2.33
2018-08-12T07:51:38.909Z,2.93
2018-08-12T07:54:08.672Z,2.40
2018-08-12T07:56:38.544Z,2.50
2018-08-12T07:59:08.306Z,2.70
2018-08-12T08:01:38.054Z,2.70
2018-08-12T08:04:07.886Z,3.10
2018-08-12T08:06:37.778Z,3.10
2018-08-12T08:09:11.073Z,2.90
2018-08-12T08:11:41.403Z,2.37
2018-08-12T08:14:11.172Z,2.63
2018-08-12T08:16:40.879Z,2.40
2018-08-12T08:19:10.761Z,2.13
2018-08-12T08:21:40.553Z,2.73
2018-08-12T08:24:10.312Z,1.90
2018-08-12T08:26:40.196Z,2.60
2018-08-12T08:29:09.872Z,2.30
2018-08-12T08:31:39.838Z,2.33
2018-08-12T08:34:09.405Z,2.40
2018-08-12T08:36:39.145Z,2.77
2018-08-12T08:39:13.170Z,2.37
2018-08-12T08:41:43.341Z,2.60
2018-08-12T08:44:13.112Z,2.47
2018-08-12T08:46:42.809Z,2.20
2018-08-12T08:49:12.675Z,2.40
2018-08-12T08:51:42.346Z,2.30
2018-08-12T08:54:12.063Z,2.00
2018-08-12T08:56:41.939Z,1.73
2018-08-12T08:59:11.865Z,2.50
2018-08-12T09:01:41.821Z,2.53
2018-08-12T09:04:11.453Z,2.20
2018-08-12T09:06:41.170Z,2.67
2018-08-12T09:09:14.509Z,2.43
2018-08-12T09:11:44.456Z,2.27
2018-08-12T09:14:14.212Z,2.03
2018-08-12T09:16:43.921Z,2.23
2018-08-12T09:19:13.612Z,1.90
2018-08-12T09:21:43.316Z,2.20
2018-08-12T09:24:12.978Z,2.10
2018-08-12T09:26:42.674Z,2.10
2018-08-12T09:29:12.336Z,2.30
2018-08-12T09:31:42.317Z,1.90
2018-08-12T09:34:12.083Z,2.47
2018-08-12T09:36:41.790Z,1.87
2018-08-12T09:39:12.721Z,2.23
2018-08-12T09:41:42.464Z,1.70
2018-08-12T09:44:12.262Z,1.60
2018-08-12T09:46:41.976Z,1.63
2018-08-12T09:49:11.914Z,1.60
2018-08-12T09:51:41.670Z,1.60
2018-08-12T09:54:11.430Z,1.80
2018-08-12T09:56:41.211Z,1.90
2018-08-12T09:59:10.981Z,1.30
2018-08-12T10:01:40.719Z,1.73
2018-08-12T10:04:10.476Z,1.20
2018-08-12T10:06:40.275Z,1.23
2018-08-12T10:09:11.449Z,1.27
2018-08-12T10:11:41.186Z,1.57
2018-08-12T10:14:10.901Z,1.10
2018-08-12T10:16:40.775Z,1.10
2018-08-12T10:19:10.533Z,1.20
2018-08-12T10:21:40.425Z,0.97
2018-08-12T10:24:10.224Z,1.13
2018-08-12T10:26:40.062Z,1.40
2018-08-12T10:29:09.757Z,1.40
2018-08-12T10:31:39.442Z,1.30
2018-08-12T10:34:09.084Z,1.23
2018-08-12T10:36:38.844Z,1.10
2018-08-12T10:39:09.665Z,1.50
2018-08-12T10:41:39.393Z,1.23
2018-08-12T10:44:09.177Z,1.20
2018-08-12T10:46:38.903Z,1.20
2018-08-12T10:49:08.669Z,1.30
2018-08-12T10:51:38.432Z,1.17
2018-08-12T10:54:08.495Z,1.20
2018-08-12T10:56:38.462Z,1.33
2018-08-12T10:59:08.305Z,1.30
2018-08-12T11:01:38.091Z,1.33
2018-08-12T11:04:08.096Z,1.13
2018-08-12T11:06:37.872Z,1.40
2018-08-12T11:09:09.211Z,1.10
2018-08-12T11:11:39.086Z,1.30
2018-08-12T11:14:08.816Z,1.00
2018-08-12T11:16:38.600Z,1.10
2018-08-12T11:19:08.302Z,1.30
2018-08-12T11:21:38.061Z,1.00
2018-08-12T11:24:07.886Z,1.30
2018-08-12T11:26:37.695Z,1.10
2018-08-12T11:29:08.166Z,1.10
2018-08-12T11:31:37.898Z,1.13
2018-08-12T11:34:08.383Z,1.00
2018-08-12T11:36:38.221Z,1.17
2018-08-12T11:39:11.263Z,1.00
2018-08-12T11:41:41.186Z,0.93
2018-08-12T11:44:10.946Z,1.60
2018-08-12T11:46:40.617Z,1.27
2018-08-12T11:49:10.480Z,1.10
2018-08-12T11:51:40.147Z,1.30
2018-08-12T11:54:10.162Z,1.20
2018-08-12T11:56:39.856Z,1.50
2018-08-12T11:59:09.553Z,1.20
2018-08-12T12:01:39.281Z,1.10
2018-08-12T12:04:09.047Z,1.60
2018-08-12T12:06:38.863Z,1.63
2018-08-12T12:09:10.478Z,1.50
2018-08-12T12:11:40.189Z,1.30
2018-08-12T12:14:09.914Z,1.27
2018-08-12T12:16:39.710Z,1.40
2018-08-12T12:19:09.549Z,1.43
2018-08-12T12:21:39.276Z,1.40
2018-08-12T12:24:09.029Z,1.43
2018-08-12T12:26:38.797Z,1.40
2018-08-12T12:29:08.535Z,1.40
2018-08-12T12:31:38.350Z,1.77
2018-08-12T12:34:08.373Z,1.60
2018-08-12T12:36:38.236Z,1.50
2018-08-12T12:39:10.985Z,1.60
2018-08-12T12:41:40.811Z,1.53
2018-08-12T12:44:10.585Z,1.63
2018-08-12T12:46:40.433Z,1.60
2018-08-12T12:49:10.193Z,1.73
2018-08-12T12:51:40.018Z,1.50
2018-08-12T12:54:09.986Z,1.50
2018-08-12T12:56:39.781Z,1.50
2018-08-12T12:59:09.594Z,1.40
2018-08-12T13:01:39.541Z,1.87
2018-08-12T13:04:09.530Z,1.83
2018-08-12T13:06:39.272Z,1.70
2018-08-12T13:09:12.519Z,1.50
2018-08-12T13:11:42.675Z,1.60
2018-08-12T13:14:12.529Z,1.63
2018-08-12T13:16:43.841Z,1.30
2018-08-12T13:19:13.572Z,1.57
2018-08-12T13:21:45.319Z,2.03
2018-08-12T13:24:15.135Z,1.67
2018-08-12T13:26:44.977Z,1.67
2018-08-12T13:29:14.637Z,1.20
2018-08-12T13:31:44.326Z,1.40
2018-08-12T13:34:14.074Z,1.90
2018-08-12T13:36:43.793Z,1.60
2018-08-12T13:39:14.393Z,1.93
2018-08-12T13:41:44.181Z,1.77
2018-08-12T13:44:14.002Z,1.80
2018-08-12T13:46:43.781Z,1.80
2018-08-12T13:49:13.621Z,1.70
2018-08-12T13:51:43.294Z,1.80
2018-08-12T13:54:12.969Z,1.90
2018-08-12T13:56:42.666Z,1.70
2018-08-12T13:59:12.421Z,2.10
2018-08-12T14:01:42.284Z,1.90
2018-08-12T14:04:11.947Z,2.03
2018-08-12T14:06:41.764Z,2.37
2018-08-12T14:09:11.942Z,1.80
2018-08-12T14:11:41.786Z,2.13
2018-08-12T14:14:11.578Z,2.40
2018-08-12T14:16:41.372Z,2.20
2018-08-12T14:19:11.154Z,1.63
2018-08-12T14:21:40.898Z,2.03
2018-08-12T14:24:10.697Z,2.97
2018-08-12T14:26:40.473Z,2.40
2018-08-12T14:29:10.241Z,2.90
2018-08-12T14:31:40.047Z,2.63
2018-08-12T14:34:10.091Z,2.37
2018-08-12T14:36:39.872Z,6.50
2018-08-12T14:39:10.833Z,2.57
2018-08-12T14:41:40.627Z,2.40
2018-08-12T14:44:10.436Z,3.10
2018-08-12T14:46:40.331Z,3.30
2018-08-12T14:49:10.099Z,2.50
2018-08-12T14:51:39.752Z,2.30
2018-08-12T14:54:09.518Z,2.27
2018-08-12T14:56:39.455Z,2.00
2018-08-12T14:59:09.691Z,2.20
2018-08-12T15:01:39.421Z,2.03
2018-08-12T15:04:09.141Z,2.40
2018-08-12T15:06:38.856Z,2.43
2018-08-12T15:09:11.827Z,2.37
2018-08-12T15:11:41.883Z,2.60
2018-08-12T15:14:11.644Z,2.10
2018-08-12T15:16:41.325Z,2.20
2018-08-12T15:19:11.100Z,1.83
2018-08-12T15:21:41.038Z,2.23
2018-08-12T15:24:10.698Z,2.27
2018-08-12T15:26:40.382Z,1.90
2018-08-12T15:29:10.171Z,2.20
2018-08-12T15:31:39.842Z,2.50
2018-08-12T15:34:10.123Z,2.47
2018-08-12T15:36:39.853Z,2.30
2018-08-12T15:39:12.211Z,2.20
2018-08-12T15:41:42.956Z,2.10
2018-08-12T15:44:12.734Z,2.50
2018-08-12T15:46:42.758Z,2.20
2018-08-12T15:49:12.614Z,1.60
2018-08-12T15:51:42.549Z,1.93
2018-08-12T15:54:12.458Z,1.80
2018-08-12T15:56:42.406Z,1.83
2018-08-12T15:59:12.179Z,2.20
2018-08-12T16:01:42.503Z,2.30
2018-08-12T16:04:12.310Z,2.07
2018-08-12T16:06:42.034Z,2.60
2018-08-12T16:09:12.749Z,1.97
2018-08-12T16:11:42.590Z,2.50
2018-08-12T16:14:12.789Z,2.20
2018-08-12T16:16:42.549Z,2.17
2018-08-12T16:19:12.469Z,2.50
2018-08-12T16:21:42.292Z,2.30
2018-08-12T16:24:12.093Z,1.93
2018-08-12T16:26:41.944Z,1.90
2018-08-12T16:29:11.930Z,2.30
2018-08-12T16:31:41.726Z,2.40
2018-08-12T16:34:11.473Z,2.07
2018-08-12T16:36:41.414Z,1.90
2018-08-12T16:39:12.681Z,2.07
2018-08-12T16:41:42.514Z,2.00
2018-08-12T16:44:13.088Z,1.50
2018-08-12T16:46:42.828Z,2.20
2018-08-12T16:49:12.601Z,1.90
2018-08-12T16:51:42.294Z,2.00
2018-08-12T16:54:11.996Z,1.90
2018-08-12T16:56:41.800Z,1.70
2018-08-12T16:59:11.722Z,2.47
2018-08-12T17:01:41.472Z,2.30
2018-08-12T17:04:11.384Z,2.53
2018-08-12T17:06:41.039Z,1.90
2018-08-12T17:09:12.292Z,1.90
2018-08-12T17:11:42.060Z,1.73
2018-08-12T17:14:12.073Z,2.17
2018-08-12T17:16:41.791Z,1.63
2018-08-12T17:19:11.607Z,2.00
2018-08-12T17:21:41.347Z,2.00
2018-08-12T17:24:11.061Z,1.90
2018-08-12T17:26:40.885Z,2.07
2018-08-12T17:29:10.633Z,2.37
2018-08-12T17:31:40.405Z,1.87
2018-08-12T17:34:10.211Z,1.70
2018-08-12T17:36:39.955Z,1.90
2018-08-12T17:39:11.090Z,2.07
2018-08-12T17:41:40.880Z,1.87
2018-08-12T17:44:10.703Z,2.20
2018-08-12T17:46:40.565Z,2.00
2018-08-12T17:49:10.487Z,1.97
2018-08-12T17:51:40.265Z,2.00
2018-08-12T17:54:10.216Z,1.97
2018-08-12T17:56:39.894Z,2.10
2018-08-12T17:59:09.881Z,2.40
2018-08-12T18:01:39.562Z,2.13
2018-08-12T18:04:09.378Z,1.97
2018-08-12T18:06:39.075Z,1.97
2018-08-12T18:09:09.682Z,1.97
2018-08-12T18:11:39.349Z,2.20
2018-08-12T18:14:09.496Z,2.40
2018-08-12T18:16:39.313Z,2.20
2018-08-12T18:19:09.081Z,2.10
2018-08-12T18:21:38.823Z,2.50
2018-08-12T18:24:08.810Z,2.70
2018-08-12T18:26:38.640Z,1.80
2018-08-12T18:29:08.357Z,2.30
2018-08-12T18:31:38.213Z,2.20
2018-08-12T18:34:08.123Z,2.63
2018-08-12T18:36:37.785Z,1.90
2018-08-12T18:39:11.131Z,2.20
2018-08-12T18:41:41.093Z,2.00
2018-08-12T18:44:11.256Z,2.20
2018-08-12T18:46:40.996Z,1.73
2018-08-12T18:49:10.792Z,2.03
2018-08-12T18:51:40.553Z,2.80
2018-08-12T18:54:10.357Z,2.60
2018-08-12T18:56:40.299Z,2.87
2018-08-12T18:59:09.969Z,3.07
2018-08-12T19:01:39.637Z,2.87
2018-08-12T19:04:09.447Z,2.47
2018-08-12T19:06:39.166Z,2.30
2018-08-12T19:09:11.018Z,3.10
2018-08-12T19:11:40.786Z,3.17
2018-08-12T19:14:10.566Z,2.87
2018-08-12T19:16:40.239Z,2.90
2018-08-12T19:19:10.117Z,3.20
2018-08-12T19:21:39.837Z,4.07
2018-08-12T19:24:09.611Z,3.20
2018-08-12T19:26:39.358Z,3.77
2018-08-12T19:29:09.561Z,4.23
2018-08-12T19:31:39.270Z,4.60
2018-08-12T19:34:08.977Z,5.20
2018-08-12T19:36:38.766Z,4.33
2018-08-12T19:39:11.194Z,4.37
2018-08-12T19:41:40.965Z,4.33
2018-08-12T19:44:10.732Z,3.93
2018-08-12T19:46:40.583Z,3.43
2018-08-12T19:49:10.341Z,2.73
2018-08-12T19:51:40.019Z,3.30
2018-08-12T19:54:09.768Z,3.57
2018-08-12T19:56:39.649Z,3.73
2018-08-12T19:59:09.393Z,3.23
2018-08-12T20:01:39.220Z,2.67
2018-08-12T20:04:08.957Z,3.07
2018-08-12T20:06:38.673Z,3.10
2018-08-12T20:09:11.344Z,2.80
2018-08-12T20:11:41.161Z,3.93
2018-08-12T20:14:10.917Z,3.17
2018-08-12T20:16:40.716Z,3.50
2018-08-12T20:19:10.533Z,3.43
2018-08-12T20:21:40.356Z,3.40
2018-08-12T20:24:10.237Z,3.90
2018-08-12T20:26:39.915Z,3.53
2018-08-12T20:29:09.734Z,2.90
2018-08-12T20:31:39.502Z,3.13
2018-08-12T20:34:09.258Z,2.53
2018-08-12T20:36:39.818Z,3.40
2018-08-12T20:39:12.460Z,2.63
2018-08-12T20:41:43.125Z,2.90
2018-08-12T20:44:13.057Z,3.23
2018-08-12T20:46:42.846Z,3.10
2018-08-12T20:49:12.619Z,3.10
2018-08-12T20:51:42.571Z,4.80
2018-08-12T20:54:14.310Z,4.00
2018-08-12T20:56:44.107Z,4.00
2018-08-12T20:59:13.854Z,3.17
2018-08-12T21:01:43.711Z,3.30
2018-08-12T21:04:13.561Z,4.33
2018-08-12T21:06:43.286Z,3.50
2018-08-12T21:09:13.050Z,3.97
2018-08-12T21:11:42.898Z,4.00
2018-08-12T21:14:12.589Z,4.43
2018-08-12T21:16:42.253Z,4.17
2018-08-12T21:19:11.933Z,3.87
2018-08-12T21:21:41.670Z,4.03
2018-08-12T21:24:11.461Z,3.63
2018-08-12T21:26:41.415Z,3.80
2018-08-12T21:29:11.198Z,3.30
2018-08-12T21:31:41.837Z,4.00
2018-08-12T21:34:11.632Z,3.90
2018-08-12T21:36:41.338Z,4.27
2018-08-12T21:39:13.249Z,3.87
2018-08-12T21:41:43.108Z,3.87
2018-08-12T21:44:12.768Z,4.70
2018-08-12T21:46:43.038Z,4.10
2018-08-12T21:49:12.850Z,3.97
2018-08-12T21:51:42.561Z,4.60
2018-08-12T21:54:12.467Z,3.97
2018-08-12T21:56:42.417Z,4.20
2018-08-12T21:59:12.224Z,4.27
2018-08-12T22:01:41.954Z,3.50
2018-08-12T22:04:11.677Z,3.43
2018-08-12T22:06:41.443Z,3.73
2018-08-12T22:09:11.917Z,3.93
2018-08-12T22:11:41.961Z,3.67
2018-08-12T22:14:11.817Z,3.50
2018-08-12T22:16:41.549Z,3.43
2018-08-12T22:19:11.238Z,4.77
2018-08-12T22:21:40.948Z,4.00
2018-08-12T22:24:10.704Z,4.10
2018-08-12T22:26:40.372Z,2.93
2018-08-12T22:29:10.278Z,3.60
2018-08-12T22:31:40.019Z,3.40
2018-08-12T22:34:09.815Z,2.80
2018-08-12T22:36:39.530Z,3.33
2018-08-12T22:39:10.227Z,2.73
2018-08-12T22:41:39.908Z,3.10
2018-08-12T22:44:09.626Z,2.93
2018-08-12T22:46:39.360Z,3.23
2018-08-12T22:49:09.201Z,2.80
2018-08-12T22:51:38.959Z,3.40
2018-08-12T23:09:01.891Z,2.40
2018-08-12T23:11:33.123Z,2.67
2018-08-12T23:14:02.828Z,2.33
2018-08-12T23:16:49.129Z,2.73
2018-08-12T23:19:18.838Z,2.40
2018-08-12T23:21:48.574Z,2.60
2018-08-12T23:24:18.427Z,2.50
2018-08-12T23:26:48.090Z,2.53
2018-08-12T23:29:17.876Z,2.20
2018-08-12T23:31:47.677Z,2.40
2018-08-12T23:34:17.381Z,2.57
2018-08-12T23:36:47.053Z,2.47
2018-08-12T23:39:16.769Z,2.50
2018-08-12T23:41:46.521Z,2.77
2018-08-12T23:44:16.189Z,3.00
2018-08-12T23:46:45.928Z,2.50
2018-08-12T23:49:15.599Z,2.20
2018-08-12T23:51:45.285Z,2.70
2018-08-12T23:54:15.180Z,2.30
2018-08-12T23:56:44.916Z,2.43
2018-08-12T23:59:14.619Z,2.07
